Airfield :
LOGIN :

Register | Disclaimer

   EN    FR    IT 

 










Legend :    VFR   Marginal VFR   IFR   Intensive IFR   Very Intensive IFR
Visi :
Ceiling :
>= 8 km
>= 3000ft
5 to 8 km
1000 to 3000 ft
1500m to 5 km
500 to 1000 ft
800 to 1500m
200 to 500 ft
< 800m
< 200 ft
Symbols :   Thunderstorms  Fog  Heavy snow  Heavy precipitations  Wind > 20 kt
SIGMETs :     Misc.  Thunderstorms  Icing  Turbulence  Mountain Waves  Volcanic Ashes







- Airport Elevation : 313 ft
- Download approach charts


LFQA - Reims-Prunay

CURRENT METAR :
  • 240930Z AUTO VRB03KT 9999 OVC017 19/14 Q1026

EXPIRED METARs :
  • 240900Z AUTO 34004KT 290V020 9999 OVC016 18/14 Q1026
  • 240830Z AUTO VRB04KT 9999 OVC014 17/13 Q1026
  • 240800Z AUTO 02003KT 330V060 9999 OVC013 17/13 Q1026
  • 240730Z AUTO 01003KT 330V100 9999 OVC012 16/13 Q1026
  • 240700Z AUTO 31004KT 270V340 9999 OVC009 15/13 Q1026

TAF N/A
No reported NOTAMs for that airfield.



MET'MAP, your aeronautical weather chart ! - Copyright ORBIFLY December 2007 - Disclaimer

ORBIFLY MET'MAP TEAM :

Programming & Development : Alexandra Zaïnal
Concept & Development : Baudouin d'Aumeries
Co-Development & Prog : Marc-Olivier Méhu
Technical & hardware support : Manuel Goepfert

Contact : metmap@orbifly.com




SOURCES & CREDITS :

   NOAA